UNO1H HKGA-HKWJ

Flight info

Callsign UNO1H
Flight time N/A
Altitude 7000
Route ENORA ENORA1B
Aircraft C208/L-SDFGR/C

Departure

Time N/A
Airport Garissa Airport (HKGA)

Arrival

Time 2026-04-23 15:32
Airport Wajir Airport (HKWJ)
Time Latitude Longitude Altitude Speed Heading
2026-04-23 14:54 0.06199 40.31255 414 ft 0 kts 116°
2026-04-23 14:55 0.06198 40.31256 414 ft 2 kts 108°
2026-04-23 14:55 0.06204 40.31287 414 ft 7 kts 76°
2026-04-23 14:55 0.06184 40.31339 414 ft 10 kts 127°
2026-04-23 14:55 0.06107 40.31436 412 ft 34 kts 129°
2026-04-23 14:56 0.05861 40.31744 414 ft 81 kts 127°
2026-04-23 14:56 0.05452 40.32260 521 ft 100 kts 130°
2026-04-23 14:56 0.05366 40.32909 784 ft 110 kts 55°
2026-04-23 14:56 0.06081 40.32995 943 ft 119 kts 324°
2026-04-23 14:57 0.06711 40.32423 1054 ft 124 kts 311°
2026-04-23 14:57 0.07326 40.31798 1198 ft 128 kts 313°
2026-04-23 14:57 0.08027 40.31160 1321 ft 147 kts 327°
2026-04-23 14:57 0.09015 40.30787 1537 ft 159 kts 347°
2026-04-23 14:58 0.10088 40.30493 1851 ft 159 kts 346°
2026-04-23 14:58 0.11171 40.30316 2162 ft 156 kts 11°
2026-04-23 14:58 0.12253 40.30393 2474 ft 158 kts
2026-04-23 14:58 0.13340 40.30273 2802 ft 156 kts 357°
2026-04-23 14:59 0.14410 40.30126 3105 ft 155 kts 358°
2026-04-23 14:59 0.15481 40.29979 3371 ft 155 kts 358°
2026-04-23 14:59 0.16547 40.29834 3697 ft 149 kts 358°
2026-04-23 14:59 0.17519 40.29694 4196 ft 138 kts 358°
2026-04-23 15:00 0.18478 40.29567 4515 ft 140 kts 358°
2026-04-23 15:00 0.19439 40.29436 4878 ft 139 kts 358°
2026-04-23 15:00 0.20397 40.29307 5207 ft 139 kts 358°
2026-04-23 15:00 0.21362 40.29177 5531 ft 140 kts 358°
2026-04-23 15:01 0.22331 40.29046 5850 ft 141 kts 358°
2026-04-23 15:01 0.23307 40.28914 6165 ft 142 kts 358°
2026-04-23 15:01 0.24273 40.28784 6466 ft 142 kts 358°
2026-04-23 15:01 0.25256 40.28651 6767 ft 144 kts 358°
2026-04-23 15:02 0.26312 40.28513 6795 ft 162 kts 358°
2026-04-23 15:02 0.27472 40.28361 6806 ft 173 kts 357°
2026-04-23 15:02 0.28694 40.28196 6804 ft 181 kts 356°
2026-04-23 15:02 0.29956 40.28023 6805 ft 185 kts 356°
2026-04-23 15:03 0.31232 40.27850 6805 ft 185 kts 356°
2026-04-23 15:03 0.32510 40.27675 6805 ft 185 kts 356°
2026-04-23 15:03 0.33786 40.27501 6805 ft 185 kts 356°
2026-04-23 15:03 0.35061 40.27328 6805 ft 185 kts 356°
2026-04-23 15:04 0.36339 40.27155 6805 ft 185 kts 356°
2026-04-23 15:04 0.37617 40.26981 6806 ft 185 kts 356°
2026-04-23 15:04 0.38895 40.26808 6806 ft 185 kts 356°
2026-04-23 15:04 0.40174 40.26634 6803 ft 186 kts 356°
2026-04-23 15:05 0.41455 40.26460 6804 ft 186 kts 356°
2026-04-23 15:05 0.42717 40.26185 6793 ft 188 kts 341°
2026-04-23 15:05 0.43908 40.25635 6791 ft 187 kts 344°
2026-04-23 15:05 0.45166 40.25355 6804 ft 184 kts 357°
2026-04-23 15:06 0.46439 40.25213 6805 ft 184 kts 358°
2026-04-23 15:06 0.47719 40.25059 6804 ft 185 kts 357°
2026-04-23 15:06 0.48997 40.24891 6803 ft 185 kts 356°
2026-04-23 15:06 0.50275 40.24722 6804 ft 185 kts 357°
2026-04-23 15:07 0.51554 40.24555 6804 ft 185 kts 357°
2026-04-23 15:07 0.52833 40.24387 6805 ft 185 kts 357°
2026-04-23 15:07 0.54112 40.24219 6800 ft 185 kts 357°
2026-04-23 15:07 0.55392 40.24051 6797 ft 186 kts 357°
2026-04-23 15:08 0.56670 40.23884 6804 ft 185 kts 357°
2026-04-23 15:08 0.57948 40.23717 6807 ft 185 kts 357°
2026-04-23 15:08 0.59230 40.23549 6795 ft 186 kts 357°
2026-04-23 15:09 0.61790 40.23213 6787 ft 185 kts 357°
2026-04-23 15:09 0.63068 40.23045 6791 ft 185 kts 357°
2026-04-23 15:09 0.64326 40.22881 6797 ft 185 kts 357°
2026-04-23 15:09 0.65602 40.22714 6803 ft 185 kts 357°
2026-04-23 15:10 0.66462 40.22601 6803 ft 185 kts 357°
2026-04-23 15:10 0.68173 40.22376 6797 ft 185 kts 357°
2026-04-23 15:10 0.69434 40.22211 6784 ft 186 kts 357°
2026-04-23 15:10 0.70712 40.22043 6793 ft 185 kts 357°
2026-04-23 15:11 0.71989 40.21876 6796 ft 185 kts 357°
2026-04-23 15:11 0.73266 40.21709 6797 ft 185 kts 357°
2026-04-23 15:11 0.74543 40.21541 6797 ft 185 kts 357°
2026-04-23 15:11 0.75818 40.21374 6800 ft 185 kts 357°
2026-04-23 15:12 0.77096 40.21207 6801 ft 185 kts 357°
2026-04-23 15:12 0.78389 40.21037 6800 ft 185 kts 357°
2026-04-23 15:12 0.79651 40.20872 6793 ft 185 kts 357°
2026-04-23 15:12 0.80929 40.20704 6800 ft 185 kts 357°
2026-04-23 15:13 0.82205 40.20537 6802 ft 185 kts 357°
2026-04-23 15:13 0.83482 40.20370 6800 ft 185 kts 357°
2026-04-23 15:13 0.84758 40.20203 6802 ft 185 kts 357°
2026-04-23 15:13 0.86034 40.20036 6805 ft 185 kts 357°
2026-04-23 15:14 0.87313 40.19868 6807 ft 185 kts 357°
2026-04-23 15:14 0.88590 40.19701 6801 ft 185 kts 357°
2026-04-23 15:14 0.89871 40.19533 6795 ft 186 kts 357°
2026-04-23 15:14 0.91149 40.19365 6796 ft 186 kts 357°
2026-04-23 15:15 0.92426 40.19198 6801 ft 185 kts 357°
2026-04-23 15:15 0.93705 40.19030 6798 ft 185 kts 357°
2026-04-23 15:15 0.94984 40.18862 6802 ft 185 kts 357°
2026-04-23 15:15 0.96263 40.18695 6796 ft 185 kts 357°
2026-04-23 15:16 0.97541 40.18527 6799 ft 185 kts 357°
2026-04-23 15:16 0.98817 40.18360 6805 ft 185 kts 357°
2026-04-23 15:16 1.00092 40.18193 6798 ft 185 kts 357°
2026-04-23 15:16 1.01352 40.18028 6795 ft 185 kts 357°
2026-04-23 15:17 1.02629 40.17860 6802 ft 185 kts 357°
2026-04-23 15:17 1.03906 40.17693 6799 ft 185 kts 357°
2026-04-23 15:17 1.05182 40.17526 6800 ft 185 kts 357°
2026-04-23 15:17 1.06461 40.17358 6799 ft 185 kts 357°
2026-04-23 15:18 1.07738 40.17190 6800 ft 185 kts 357°
2026-04-23 15:18 1.09014 40.17023 6801 ft 185 kts 357°
2026-04-23 15:18 1.10291 40.16856 6803 ft 185 kts 357°
2026-04-23 15:18 1.11566 40.16689 6804 ft 185 kts 357°
2026-04-23 15:19 1.12843 40.16522 6802 ft 185 kts 357°
2026-04-23 15:19 1.14120 40.16354 6803 ft 185 kts 357°
2026-04-23 15:19 1.15395 40.16187 6802 ft 185 kts 357°
2026-04-23 15:19 1.16672 40.16019 6802 ft 185 kts 357°
2026-04-23 15:20 1.17520 40.15908 6802 ft 185 kts 357°
2026-04-23 15:20 1.19228 40.15684 6802 ft 185 kts 357°
2026-04-23 15:20 1.20505 40.15517 6804 ft 185 kts 357°
2026-04-23 15:20 1.21782 40.15350 6801 ft 185 kts 357°
2026-04-23 15:21 1.23060 40.15182 6802 ft 185 kts 357°
2026-04-23 15:21 1.24336 40.15015 6803 ft 185 kts 357°
2026-04-23 15:21 1.25614 40.14847 6805 ft 185 kts 357°
2026-04-23 15:21 1.26890 40.14679 6805 ft 185 kts 357°
2026-04-23 15:22 1.28167 40.14512 6802 ft 185 kts 357°
2026-04-23 15:22 1.29445 40.14345 6801 ft 185 kts 357°
2026-04-23 15:22 1.30724 40.14177 6802 ft 185 kts 357°
2026-04-23 15:22 1.32004 40.14010 6801 ft 185 kts 357°
2026-04-23 15:23 1.33264 40.13844 6802 ft 185 kts 357°
2026-04-23 15:23 1.34544 40.13676 6805 ft 185 kts 357°
2026-04-23 15:23 1.35823 40.13509 6804 ft 185 kts 357°
2026-04-23 15:23 1.37101 40.13341 6801 ft 185 kts 357°
2026-04-23 15:24 1.38379 40.13174 6804 ft 185 kts 357°
2026-04-23 15:24 1.39658 40.13006 6802 ft 185 kts 357°
2026-04-23 15:24 1.40940 40.12838 6802 ft 185 kts 357°
2026-04-23 15:24 1.42220 40.12669 6800 ft 185 kts 357°
2026-04-23 15:25 1.43497 40.12502 6807 ft 185 kts 357°
2026-04-23 15:25 1.44762 40.12336 6796 ft 186 kts 357°
2026-04-23 15:25 1.45627 40.12223 6789 ft 186 kts 357°
2026-04-23 15:25 1.47397 40.11999 6162 ft 196 kts 357°
2026-04-23 15:26 1.48748 40.11824 5662 ft 195 kts 356°
2026-04-23 15:26 1.50092 40.11647 5165 ft 194 kts 356°
2026-04-23 15:26 1.51421 40.11470 4801 ft 187 kts 356°
2026-04-23 15:26 1.52637 40.11304 4720 ft 170 kts 357°
2026-04-23 15:27 1.53845 40.11150 4229 ft 179 kts 357°
2026-04-23 15:27 1.54673 40.11044 3903 ft 183 kts 357°
2026-04-23 15:27 1.55948 40.10877 3405 ft 186 kts 357°
2026-04-23 15:27 1.57184 40.10710 3295 ft 170 kts 356°
2026-04-23 15:28 1.58338 40.10553 3291 ft 164 kts 357°
2026-04-23 15:28 1.59461 40.10405 3290 ft 161 kts 358°
2026-04-23 15:28 1.60564 40.10262 3289 ft 159 kts 358°
2026-04-23 15:28 1.61655 40.10119 3288 ft 158 kts 358°
2026-04-23 15:29 1.62739 40.09977 3287 ft 157 kts 358°
2026-04-23 15:29 1.63821 40.09836 3284 ft 157 kts 358°
2026-04-23 15:29 1.64900 40.09903 3118 ft 156 kts 16°
2026-04-23 15:29 1.65916 40.10109 2798 ft 145 kts 19°
2026-04-23 15:30 1.66896 40.10321 2385 ft 145 kts 17°
2026-04-23 15:30 1.67878 40.10548 2014 ft 143 kts 21°
2026-04-23 15:30 1.68826 40.10792 1706 ft 133 kts 18°
2026-04-23 15:30 1.69700 40.10917 1395 ft 123 kts
2026-04-23 15:31 1.70503 40.10789 1192 ft 109 kts 345°
2026-04-23 15:31 1.71189 40.10530 1035 ft 104 kts 331°
2026-04-23 15:31 1.71786 40.10157 932 ft 102 kts 326°
2026-04-23 15:31 1.72354 40.09786 843 ft 90 kts 326°
2026-04-23 15:32 1.72729 40.09532 842 ft 48 kts 327°
2026-04-23 15:32 1.72988 40.09361 843 ft 42 kts 328°
2026-04-23 15:32 1.73212 40.09215 842 ft 25 kts 330°
2026-04-23 15:32 1.73284 40.09121 845 ft 15 kts 249°
2026-04-23 15:33 1.73230 40.09022 846 ft 17 kts 237°
2026-04-23 15:33 1.73176 40.08914 840 ft 18 kts 240°
2026-04-23 15:33 1.73152 40.08821 841 ft 15 kts 309°
2026-04-23 15:33 1.73204 40.08797 843 ft 0 kts 347°